Christos Xxxiii — SVA6631 — position and weather

sailwx.info

Track history (hours):
 
Tides and Currents Weather Stations Pressure Air Temp Water Temp Dewpoint Dewpoint Depression Visibility Wind Speed Wind Dir Waves Ship Positions

Christos Xxxiii

Last reported at 2017-Sep-21 13:55 UTC. Time now 2017-Sep-23 02:27 UTC.
Position N 37°58' E 023°34'.

Length 33 m; draft 5 m.

Type: Tug. MMSI: 241395000.

Date/timePositionNaut miles runAvg speedWind from/ knotsBaromVisibWave heightAir tempDewpointWater temp
2017-Sep-21 13:55N 37°58' E 023°34'1 1.3
2017-Sep-21 13:31N 37°57' E 023°33'0 0.1
2017-Sep-21 13:00N 37°57' E 023°33'0 0.0
2017-Sep-21 12:30N 37°57' E 023°33'0 0.0
2017-Sep-21 12:00N 37°57' E 023°33'0 0.3
2017-Sep-21 11:31N 37°57' E 023°33'4 8.3
2017-Sep-21 11:00N 38°01' E 023°35'0 0.6
2017-Sep-21 10:30N 38°01' E 023°35'4 7.5
2017-Sep-21 10:00N 37°58' E 023°33'1 2.1
2017-Sep-21 09:30N 37°58' E 023°34'0 0.0
2017-Sep-21 09:00N 37°58' E 023°34'0 0.0
2017-Sep-21 08:30N 37°58' E 023°34'0 0.0
2017-Sep-21 08:00N 37°58' E 023°34'0 0.0
2017-Sep-21 07:30N 37°58' E 023°34'0 0.0
2017-Sep-21 07:01N 37°58' E 023°34'2 3.5
2017-Sep-21 06:31N 37°56' E 023°34'1 0.2
2017-Sep-21 00:37N 37°57' E 023°35'0 3.7
2017-Sep-21 00:30N 37°56' E 023°35'1 1.6
2017-Sep-21 00:01N 37°56' E 023°34'0 0.1
2017-Sep-20 23:31N 37°56' E 023°34'0 0.0
2017-Sep-20 23:01N 37°56' E 023°34'0 0.0
2017-Sep-20 22:30N 37°56' E 023°34'0 0.0
2017-Sep-20 22:00N 37°56' E 023°34'0 0.0
2017-Sep-20 21:30N 37°56' E 023°34'0 0.0
2017-Sep-20 21:00N 37°56' E 023°34'0 0.0
2017-Sep-20 20:31N 37°56' E 023°34'0 0.0
2017-Sep-20 20:00N 37°56' E 023°34'0 0.0
2017-Sep-20 19:31N 37°56' E 023°34'0 0.0
2017-Sep-20 19:00N 37°56' E 023°34'0 0.0
2017-Sep-20 18:30N 37°56' E 023°34'0 0.0
2017-Sep-20 18:00N 37°56' E 023°34'0 0.1
2017-Sep-20 17:31N 37°56' E 023°34'4 8.9
2017-Sep-20 17:00N 37°55' E 023°39'3 5.8
2017-Sep-20 16:30N 37°54' E 023°43'0 0.0
2017-Sep-20 16:00N 37°54' E 023°43'0 0.0
2017-Sep-20 15:30N 37°54' E 023°43'0 0.0
2017-Sep-20 15:00N 37°54' E 023°43'1 1.3
2017-Sep-20 14:00N 37°53' E 023°42'5 9.3
2017-Sep-20 13:30N 37°56' E 023°37'4 7.3
2017-Sep-20 13:00N 37°57' E 023°33'0 0.2
2017-Sep-20 12:30N 37°57' E 023°33'1 1.3
2017-Sep-20 12:00N 37°57' E 023°34'2 3.2
2017-Sep-20 11:30N 37°56' E 023°34'0 0.0
2017-Sep-20 11:00N 37°56' E 023°34'0 0.0
2017-Sep-20 10:30N 37°56' E 023°34'0 0.0
2017-Sep-20 10:01N 37°56' E 023°34'0 0.0
2017-Sep-20 09:30N 37°56' E 023°34'0 0.0
2017-Sep-20 09:00N 37°56' E 023°34'0 0.0
2017-Sep-20 08:31N 37°56' E 023°34'0 0.0
2017-Sep-20 08:01N 37°56' E 023°34'0 0.0
2017-Sep-20 07:30N 37°56' E 023°34'0 0.0
2017-Sep-20 07:00N 37°56' E 023°34'0 0.0
2017-Sep-20 06:30N 37°56' E 023°34'0 0.0
2017-Sep-20 06:00N 37°56' E 023°34'0 0.0
2017-Sep-20 05:30N 37°56' E 023°34'0 0.0
2017-Sep-20 05:00N 37°56' E 023°34'0 0.0
2017-Sep-20 04:30N 37°56' E 023°34'0 0.0
2017-Sep-20 04:00N 37°56' E 023°34'0 0.0
2017-Sep-20 03:30N 37°56' E 023°34'0 0.0
2017-Sep-20 03:01N 37°56' E 023°34'0 0.0
2017-Sep-20 02:30N 37°56' E 023°34'0 0.0
2017-Sep-20 02:01N 37°56' E 023°34'0 0.0
2017-Sep-20 01:30N 37°56' E 023°34'0 0.0
2017-Sep-20 01:00N 37°56' E 023°34'0 0.0
2017-Sep-20 00:30N 37°56' E 023°34'0 0.0
2017-Sep-20 00:00N 37°56' E 023°34'0 0.0
2017-Sep-19 23:30N 37°56' E 023°34'0 0.0
2017-Sep-19 23:00N 37°56' E 023°34'0 0.0
2017-Sep-19 22:30N 37°56' E 023°34'0 0.0
2017-Sep-19 22:00N 37°56' E 023°34'0 0.0
2017-Sep-19 21:30N 37°56' E 023°34'0 0.0
2017-Sep-19 21:00N 37°56' E 023°34'0 0.0
2017-Sep-19 20:30N 37°56' E 023°34'0 0.0
2017-Sep-19 18:42N 37°56' E 023°34'0 0.0
2017-Sep-19 18:31N 37°56' E 023°34'0 0.0
2017-Sep-19 18:00N 37°56' E 023°34'0 0.0
2017-Sep-19 17:31N 37°56' E 023°34'0 0.0
2017-Sep-19 17:00N 37°56' E 023°34'0 0.0
2017-Sep-19 16:30N 37°56' E 023°34'0 0.0
2017-Sep-19 16:01N 37°56' E 023°34'0 0.0
2017-Sep-19 15:31N 37°56' E 023°34'0 0.0
2017-Sep-19 15:01N 37°56' E 023°34'0 0.0
2017-Sep-19 14:30N 37°56' E 023°34'0 0.0
2017-Sep-19 14:00N 37°56' E 023°34'0 0.8
2017-Sep-19 13:31N 37°56' E 023°34'0 0.6
2017-Sep-19 13:00N 37°56' E 023°34'0 0.0
2017-Sep-19 12:31N 37°56' E 023°34'0 0.0
2017-Sep-19 12:01N 37°56' E 023°34'0 0.0
2017-Sep-19 11:30N 37°56' E 023°34'0 0.0
2017-Sep-19 11:00N 37°56' E 023°34'0 0.0
2017-Sep-19 10:31N 37°56' E 023°34'0 0.1
2017-Sep-19 10:00N 37°56' E 023°34'0 0.5
2017-Sep-19 09:30N 37°56' E 023°34'0 0.1
2017-Sep-19 09:01N 37°56' E 023°34'0 0.2
2017-Sep-19 08:30N 37°56' E 023°34'0 0.1
2017-Sep-19 08:01N 37°56' E 023°34'0 0.4
2017-Sep-19 07:31N 37°56' E 023°34'0 0.4
2017-Sep-19 07:00N 37°56' E 023°34'0 0.0
2017-Sep-19 06:30N 37°56' E 023°34'0 0.0
2017-Sep-19 06:00N 37°56' E 023°34'0 0.0
2017-Sep-19 05:30N 37°56' E 023°34'0 0.0
2017-Sep-19 05:00N 37°56' E 023°34'0 0.0
2017-Sep-19 04:31N 37°56' E 023°34'0 0.0
2017-Sep-19 04:01N 37°56' E 023°34'0 0.0
2017-Sep-19 03:31N 37°56' E 023°34'0 0.0
2017-Sep-19 03:00N 37°56' E 023°34'0 0.0
2017-Sep-19 02:30N 37°56' E 023°34'0 0.0
2017-Sep-19 02:00N 37°56' E 023°34'0 0.0
2017-Sep-19 01:30N 37°56' E 023°34'0 0.0
2017-Sep-19 01:01N 37°56' E 023°34'0 0.0
2017-Sep-19 00:31N 37°56' E 023°34'0 0.0
2017-Sep-19 00:00N 37°56' E 023°34'0 0.0
2017-Sep-18 23:30N 37°56' E 023°34'0 0.0
2017-Sep-18 23:00N 37°56' E 023°34'0 0.0
2017-Sep-18 22:30N 37°56' E 023°34'0 0.0
2017-Sep-18 22:01N 37°56' E 023°34'0 0.0
2017-Sep-18 21:31N 37°56' E 023°34'0 0.0
2017-Sep-18 21:00N 37°56' E 023°34'0 0.0
2017-Sep-18 20:31N 37°56' E 023°34'1 0.7
2017-Sep-18 18:21N 37°56' E 023°36'2 4.4
2017-Sep-18 18:01N 37°56' E 023°34'0 0.0
2017-Sep-18 17:30N 37°56' E 023°34'0 0.0
2017-Sep-18 17:01N 37°56' E 023°34'0 0.0
2017-Sep-18 16:31N 37°56' E 023°34'0 0.0
2017-Sep-18 16:01N 37°56' E 023°34'0 0.0
2017-Sep-18 15:31N 37°56' E 023°34'0 0.0
2017-Sep-18 15:01N 37°56' E 023°34'0 0.0
2017-Sep-18 14:31N 37°56' E 023°34'0 0.0
2017-Sep-18 14:01N 37°56' E 023°34'0 0.0
2017-Sep-18 13:30N 37°56' E 023°34'0 0.0
2017-Sep-18 13:00N 37°56' E 023°34'0 0.0
2017-Sep-18 12:31N 37°56' E 023°34'0 0.0
2017-Sep-18 12:01N 37°56' E 023°34'0 0.0
2017-Sep-18 11:30N 37°56' E 023°34'0 0.0
2017-Sep-18 11:00N 37°56' E 023°34'0 0.0
2017-Sep-18 10:30N 37°56' E 023°34'0 0.0
2017-Sep-18 10:01N 37°56' E 023°34'0 0.0
2017-Sep-18 09:31N 37°56' E 023°34'0 0.0
2017-Sep-18 09:01N 37°56' E 023°34'0 0.0
2017-Sep-18 08:30N 37°56' E 023°34'0 0.0
2017-Sep-18 08:01N 37°56' E 023°34'0 0.0
2017-Sep-18 07:30N 37°56' E 023°34'0 0.0
2017-Sep-18 07:00N 37°56' E 023°34'0 0.0
2017-Sep-18 06:30N 37°56' E 023°34'0 0.0
2017-Sep-18 06:00N 37°56' E 023°34'0 0.0
2017-Sep-18 05:31N 37°56' E 023°34'0 0.0
2017-Sep-18 05:01N 37°56' E 023°34'0 0.0
2017-Sep-18 04:30N 37°56' E 023°34'0 0.0
2017-Sep-18 02:34N 37°56' E 023°34'0 0.2
2017-Sep-18 02:30N 37°56' E 023°34'0 0.0
2017-Sep-18 02:00N 37°56' E 023°34'0 0.0
2017-Sep-18 01:31N 37°56' E 023°34'0 0.0
2017-Sep-18 01:00N 37°56' E 023°34'0 0.0
2017-Sep-18 00:30N 37°56' E 023°34'0 0.0
2017-Sep-18 00:00N 37°56' E 023°34'0 0.0
2017-Sep-17 23:31N 37°56' E 023°34'0 0.0
2017-Sep-17 23:00N 37°56' E 023°34'0 0.0
2017-Sep-17 22:30N 37°56' E 023°34'0 0.0
2017-Sep-17 22:00N 37°56' E 023°34'0 0.0
2017-Sep-17 21:30N 37°56' E 023°34'0 0.0
2017-Sep-17 21:00N 37°56' E 023°34'0 0.0
2017-Sep-17 20:30N 37°56' E 023°34'0 0.0
2017-Sep-17 20:01N 37°56' E 023°34'0 0.0
2017-Sep-17 18:13N 37°56' E 023°34'0 0.4
2017-Sep-17 18:01N 37°56' E 023°34'0 0.0
2017-Sep-17 17:31N 37°56' E 023°34'0 0.0
2017-Sep-17 17:00N 37°56' E 023°34'0 0.0
2017-Sep-17 16:30N 37°56' E 023°34'0 0.0
2017-Sep-17 16:01N 37°56' E 023°34'0 0.0
2017-Sep-17 15:31N 37°56' E 023°34'0 0.0
2017-Sep-17 15:00N 37°56' E 023°34'0 0.0
2017-Sep-17 14:30N 37°56' E 023°34'0 0.2
2017-Sep-17 14:01N 37°56' E 023°34'0 0.0
2017-Sep-17 12:14N 37°56' E 023°34'0 0.4
2017-Sep-17 12:01N 37°56' E 023°34'0 0.0
2017-Sep-17 11:30N 37°56' E 023°34'0 0.0
2017-Sep-17 11:00N 37°56' E 023°34'0 0.0
2017-Sep-17 10:30N 37°56' E 023°34'0 0.0
2017-Sep-17 10:00N 37°56' E 023°34'0 0.0
2017-Sep-17 09:30N 37°56' E 023°34'0 0.0
2017-Sep-17 09:01N 37°56' E 023°34'0 0.1
2017-Sep-17 08:31N 37°56' E 023°34'2 3.5
2017-Sep-17 08:00N 37°58' E 023°34'0 0.0
2017-Sep-17 07:30N 37°58' E 023°34'0 0.0
2017-Sep-17 07:01N 37°58' E 023°34'0 0.0
2017-Sep-17 06:30N 37°58' E 023°34'0 0.0
2017-Sep-17 06:00N 37°58' E 023°34'0 0.0
2017-Sep-17 05:30N 37°58' E 023°34'0 0.0
2017-Sep-17 05:00N 37°58' E 023°34'0 0.0
2017-Sep-17 04:31N 37°58' E 023°34'0 0.0
2017-Sep-17 04:00N 37°58' E 023°34'0 0.0
2017-Sep-16 12:23N 37°58' E 023°34'1 2.4
2017-Sep-16 12:01N 37°57' E 023°35'1 1.8
2017-Sep-16 11:31N 37°58' E 023°34'0 0.1
2017-Sep-16 11:00N 37°58' E 023°34'0 0.0
2017-Sep-16 10:30N 37°58' E 023°34'0 0.0
2017-Sep-16 10:00N 37°58' E 023°34'0 0.8
2017-Sep-16 09:30N 37°57' E 023°33'0 0.8
2017-Sep-16 09:00N 37°58' E 023°34'0 0.0
2017-Sep-16 08:31N 37°58' E 023°34'0 0.0
2017-Sep-16 08:00N 37°58' E 023°34'0 0.0
2017-Sep-16 07:30N 37°58' E 023°34'0 0.0
2017-Sep-16 07:00N 37°58' E 023°34'0 0.0
2017-Sep-16 06:30N 37°58' E 023°34'0 0.0
2017-Sep-16 06:00N 37°58' E 023°34'1 1.9
2017-Sep-16 05:30N 37°57' E 023°35'1 2.7
2017-Sep-16 05:00N 37°56' E 023°34'0 0.0
2017-Sep-16 04:30N 37°56' E 023°34'0 0.0
2017-Sep-16 04:00N 37°56' E 023°34'0 0.0
2017-Sep-16 03:30N 37°56' E 023°34'0 0.0
2017-Sep-16 03:00N 37°56' E 023°34'0 0.0
2017-Sep-16 02:30N 37°56' E 023°34'0 0.0
2017-Sep-16 02:00N 37°56' E 023°34'0 0.0
2017-Sep-16 01:30N 37°56' E 023°34'0 0.0
2017-Sep-16 01:00N 37°56' E 023°34'0 0.0
2017-Sep-16 00:30N 37°56' E 023°34'0 0.0
2017-Sep-16 00:01N 37°56' E 023°34'0 0.0
2017-Sep-15 23:31N 37°56' E 023°34'0 0.0
2017-Sep-15 23:00N 37°56' E 023°34'0 0.0
2017-Sep-15 22:30N 37°56' E 023°34'0 0.0
2017-Sep-15 22:00N 37°56' E 023°34'0 0.0
2017-Sep-15 21:30N 37°56' E 023°34'0 0.0
2017-Sep-15 21:00N 37°56' E 023°34'0 0.0
2017-Sep-15 20:30N 37°56' E 023°34'0 0.0
2017-Sep-15 20:00N 37°56' E 023°34'0 0.0
2017-Sep-15 19:30N 37°56' E 023°34'0 0.0
2017-Sep-15 19:00N 37°56' E 023°34'0 0.0
2017-Sep-15 18:30N 37°56' E 023°34'0 0.0
2017-Sep-15 18:00N 37°56' E 023°34'0 0.0
2017-Sep-15 17:30N 37°56' E 023°34'0 0.0
2017-Sep-15 17:01N 37°56' E 023°34'0 0.0
2017-Sep-15 16:30N 37°56' E 023°34'0 0.0
2017-Sep-15 16:00N 37°56' E 023°34'0 0.0
2017-Sep-15 15:31N 37°56' E 023°34'0 0.0
2017-Sep-15 15:00N 37°56' E 023°34'0 0.0
2017-Sep-15 14:30N 37°56' E 023°34'0 0.0
2017-Sep-15 14:00N 37°56' E 023°34'0 0.0
2017-Sep-15 13:31N 37°56' E 023°34'0 0.0
2017-Sep-15 13:00N 37°56' E 023°34'0 0.0
2017-Sep-15 12:30N 37°56' E 023°34'0 0.0
2017-Sep-15 12:00N 37°56' E 023°34'0 0.0
2017-Sep-15 11:30N 37°56' E 023°34'0 0.0
2017-Sep-15 11:01N 37°56' E 023°34'0 0.0
2017-Sep-15 10:30N 37°56' E 023°34'0 0.0
2017-Sep-15 10:00N 37°56' E 023°34'0 0.0
2017-Sep-15 09:30N 37°56' E 023°34'0 0.0
2017-Sep-15 09:00N 37°56' E 023°34'0 0.0
2017-Sep-15 08:30N 37°56' E 023°34'0 0.0
2017-Sep-15 08:00N 37°56' E 023°34'0 0.0
2017-Sep-15 07:31N 37°56' E 023°34'0 0.0
2017-Sep-15 07:00N 37°56' E 023°34'0 0.0
2017-Sep-15 06:31N 37°56' E 023°34'0 0.0
2017-Sep-15 06:01N 37°56' E 023°34'0 0.0
2017-Sep-15 05:30N 37°56' E 023°34'0 0.0
2017-Sep-15 05:00N 37°56' E 023°34'0 0.0
2017-Sep-15 04:30N 37°56' E 023°34'0 0.0
2017-Sep-15 04:00N 37°56' E 023°34'0 0.0
2017-Sep-15 03:30N 37°56' E 023°34'0 0.0
2017-Sep-15 03:00N 37°56' E 023°34'0 0.0
2017-Sep-15 02:31N 37°56' E 023°34'0 0.0
2017-Sep-15 02:00N 37°56' E 023°34'0 0.0
2017-Sep-15 01:30N 37°56' E 023°34'0 0.0
2017-Sep-15 01:01N 37°56' E 023°34'0 0.0
2017-Sep-15 00:30N 37°56' E 023°34'0 0.0
2017-Sep-15 00:00N 37°56' E 023°34'0 0.0
2017-Sep-14 23:30N 37°56' E 023°34'0 0.0
2017-Sep-14 23:01N 37°56' E 023°34'0 0.0
2017-Sep-14 22:30N 37°56' E 023°34'0 0.0
2017-Sep-14 22:01N 37°56' E 023°34'0 0.0
2017-Sep-14 21:31N 37°56' E 023°34'0 0.0
2017-Sep-14 21:00N 37°56' E 023°34'0 0.0
2017-Sep-14 20:30N 37°56' E 023°34'0 0.0
2017-Sep-14 20:00N 37°56' E 023°34'0 0.0
2017-Sep-14 19:31N 37°56' E 023°34'0 0.0
2017-Sep-14 19:01N 37°56' E 023°34'0 0.4
2017-Sep-14 18:30N 37°56' E 023°34'0 0.0
2017-Sep-14 18:01N 37°56' E 023°34'1 2.9
2017-Sep-14 17:31N 37°57' E 023°33'0 0.1
2017-Sep-14 17:00N 37°57' E 023°33'1 1.3
2017-Sep-14 16:30N 37°58' E 023°34'2 3.7
2017-Sep-14 16:01N 37°56' E 023°34'0 0.1
2017-Sep-14 15:31N 37°56' E 023°34'0 0.0
2017-Sep-14 15:01N 37°56' E 023°34'0 0.0
2017-Sep-14 14:30N 37°56' E 023°34'0 0.0
2017-Sep-14 14:01N 37°56' E 023°34'0 0.0
2017-Sep-14 13:30N 37°56' E 023°34'0 0.0
2017-Sep-14 13:00N 37°56' E 023°34'0 0.0
2017-Sep-14 12:31N 37°56' E 023°34'0 0.1
2017-Sep-14 12:00N 37°56' E 023°34'0 0.0
2017-Sep-14 11:30N 37°56' E 023°34'0 0.0
2017-Sep-14 11:01N 37°56' E 023°34'0 0.0
2017-Sep-14 10:30N 37°56' E 023°34'0 0.0
2017-Sep-14 10:00N 37°56' E 023°34'0 0.0
2017-Sep-14 09:30N 37°56' E 023°34'0 0.0
2017-Sep-14 09:01N 37°56' E 023°34'0 0.0
2017-Sep-14 08:30N 37°56' E 023°34'1 2.6
2017-Sep-14 08:01N 37°57' E 023°35'1 2.1
2017-Sep-14 07:30N 37°57' E 023°34'0 0.0
2017-Sep-14 07:00N 37°57' E 023°34'0 0.0
2017-Sep-14 06:30N 37°57' E 023°34'0 0.0
2017-Sep-14 06:00N 37°57' E 023°34'0 0.0
2017-Sep-14 05:30N 37°57' E 023°34'0 0.0
2017-Sep-14 05:00N 37°57' E 023°34'0 0.0
2017-Sep-13 19:18N 37°57' E 023°34'1 1.9
2017-Sep-13 19:00N 37°57' E 023°34'1 2.6
2017-Sep-13 18:30N 37°56' E 023°34'0 0.1
2017-Sep-13 18:00N 37°56' E 023°34'0 0.0
2017-Sep-13 17:31N 37°56' E 023°34'0 0.0
2017-Sep-13 17:01N 37°56' E 023°34'0 0.0
2017-Sep-13 16:30N 37°56' E 023°34'0 0.0
2017-Sep-13 16:00N 37°56' E 023°34'0 0.0
2017-Sep-13 15:30N 37°56' E 023°34'0 0.0
2017-Sep-13 15:00N 37°56' E 023°34'0 0.0
2017-Sep-13 14:30N 37°56' E 023°34'0 0.0
2017-Sep-13 14:01N 37°56' E 023°34'0 0.0
2017-Sep-13 13:31N 37°56' E 023°34'0 0.0
2017-Sep-13 13:00N 37°56' E 023°34'0 0.0
2017-Sep-13 12:30N 37°56' E 023°34'0 0.0
2017-Sep-13 12:00N 37°56' E 023°34'0 0.0
2017-Sep-13 11:31N 37°56' E 023°34'0 0.1
2017-Sep-13 11:00N 37°56' E 023°34'0 0.0
2017-Sep-13 10:31N 37°56' E 023°34'0 0.0
2017-Sep-13 10:00N 37°56' E 023°34'0 0.0
2017-Sep-13 09:30N 37°56' E 023°34'0 0.0
2017-Sep-13 09:00N 37°56' E 023°34'0 0.0
2017-Sep-13 08:30N 37°56' E 023°34'0 0.1
2017-Sep-13 08:01N 37°56' E 023°34'0 0.7
2017-Sep-13 07:30N 37°56' E 023°34'0 0.6
2017-Sep-13 07:00N 37°56' E 023°34'0 0.1
2017-Sep-13 06:30N 37°56' E 023°34'0 0.0
2017-Sep-13 06:01N 37°56' E 023°34'0 0.0
2017-Sep-13 05:31N 37°56' E 023°34'0 0.0
2017-Sep-13 05:00N 37°56' E 023°34'0 0.0
2017-Sep-13 04:31N 37°56' E 023°34'0 0.0
2017-Sep-13 04:01N 37°56' E 023°34'0 0.0
2017-Sep-13 03:30N 37°56' E 023°34'0 0.0
2017-Sep-13 03:00N 37°56' E 023°34'0 0.0
2017-Sep-13 02:30N 37°56' E 023°34'0 0.1
2017-Sep-13 02:00N 37°56' E 023°34'0 0.0
2017-Sep-13 01:30N 37°56' E 023°34'0 0.0
2017-Sep-13 01:01N 37°56' E 023°34'0 0.0
2017-Sep-13 00:30N 37°56' E 023°34'0 0.0
2017-Sep-13 00:00N 37°56' E 023°34'0 0.0
2017-Sep-12 23:30N 37°56' E 023°34'0 0.0
2017-Sep-12 23:00N 37°56' E 023°34'0 0.0
2017-Sep-12 22:30N 37°56' E 023°34'0 0.0
2017-Sep-12 22:01N 37°56' E 023°34'0 0.0
2017-Sep-12 21:31N 37°56' E 023°34'0 0.0
2017-Sep-12 21:00N 37°56' E 023°34'0 0.0
2017-Sep-12 20:30N 37°56' E 023°34'0 0.0
2017-Sep-12 20:00N 37°56' E 023°34'0 0.7
2017-Sep-12 19:30N 37°56' E 023°34'0 0.2
2017-Sep-12 19:00N 37°56' E 023°34'0 0.8
2017-Sep-12 18:31N 37°56' E 023°35'0 1.0
2017-Sep-12 18:00N 37°56' E 023°34'2 4.0
2017-Sep-12 17:30N 37°55' E 023°37'1 3.0
2017-Sep-12 17:00N 37°55' E 023°39'0 0.2
2017-Sep-12 16:31N 37°55' E 023°39'0 0.6
2017-Sep-12 16:01N 37°55' E 023°39'0 0.6
2017-Sep-12 15:31N 37°55' E 023°39'1 1.4
2017-Sep-12 15:01N 37°55' E 023°38'1 1.0
2017-Sep-12 14:31N 37°55' E 023°38'2 3.2
2017-Sep-12 14:00N 37°56' E 023°36'2 3.4
2017-Sep-12 13:30N 37°57' E 023°34'4 7.5
2017-Sep-12 13:01N 37°55' E 023°38'0 0.1
2017-Sep-12 12:31N 37°55' E 023°38'0 0.4
2017-Sep-12 12:01N 37°55' E 023°38'2 3.1
2017-Sep-12 11:30N 37°55' E 023°36'2 4.1
2017-Sep-12 11:00N 37°56' E 023°34'0 0.0
2017-Sep-12 10:31N 37°56' E 023°34'0 0.0
2017-Sep-12 10:00N 37°56' E 023°34'0 0.0
2017-Sep-12 09:30N 37°56' E 023°34'0 0.0
2017-Sep-12 09:01N 37°56' E 023°34'0 0.0
2017-Sep-12 08:30N 37°56' E 023°34'0 0.0
2017-Sep-12 08:00N 37°56' E 023°34'0 0.0
2017-Sep-12 07:30N 37°56' E 023°34'0 0.0
2017-Sep-12 07:00N 37°56' E 023°34'0 0.1
2017-Sep-12 06:30N 37°56' E 023°34'0 0.0
2017-Sep-12 06:00N 37°56' E 023°34'0 0.0
2017-Sep-12 05:30N 37°56' E 023°34'0 0.0
2017-Sep-12 05:01N 37°56' E 023°34'0 0.0
2017-Sep-12 04:31N 37°56' E 023°34'0 0.0
2017-Sep-12 04:01N 37°56' E 023°34'0 0.0
2017-Sep-12 03:30N 37°56' E 023°34'0 0.0
2017-Sep-12 03:01N 37°56' E 023°34'0 0.0
2017-Sep-12 02:30N 37°56' E 023°34'0 0.0
2017-Sep-12 02:00N 37°56' E 023°34'0 0.0
2017-Sep-12 01:30N 37°56' E 023°34'0 0.0
2017-Sep-12 01:01N 37°56' E 023°34'0 0.0
2017-Sep-12 00:30N 37°56' E 023°34'0 0.0
2017-Sep-12 00:00N 37°56' E 023°34'0 0.0
2017-Sep-11 23:30N 37°56' E 023°34'0 0.1
2017-Sep-11 23:00N 37°56' E 023°34'0 0.0
2017-Sep-11 22:31N 37°56' E 023°34'0 0.1
2017-Sep-11 22:00N 37°56' E 023°34'0 0.0
2017-Sep-11 21:30N 37°56' E 023°34'0 0.0
2017-Sep-11 21:00N 37°56' E 023°34'0 0.0
2017-Sep-11 20:30N 37°56' E 023°34'0 0.0
2017-Sep-11 20:01N 37°56' E 023°34'0 0.7
2017-Sep-11 19:31N 37°56' E 023°34'3 6.4
2017-Sep-11 19:00N 37°56' E 023°38'2 5.0
2017-Sep-11 18:30N 37°57' E 023°35'0 0.7
2017-Sep-11 18:00N 37°57' E 023°35'1 2.2
2017-Sep-11 17:30N 37°56' E 023°34'0 0.0
2017-Sep-11 17:01N 37°56' E 023°34'0 0.0
2017-Sep-11 16:30N 37°56' E 023°34'0 0.0
2017-Sep-11 16:01N 37°56' E 023°34'0 0.0
2017-Sep-11 15:30N 37°56' E 023°34'0 0.0
2017-Sep-11 15:00N 37°56' E 023°34'0 0.0
2017-Sep-11 14:30N 37°56' E 023°34'0 0.0
2017-Sep-11 14:01N 37°56' E 023°34'  
Track history (hours):
 
Tides and Currents Weather Stations Pressure Air Temp Water Temp Dewpoint Dewpoint Depression Visibility Wind Speed Wind Dir Waves Ship Positions

Christos Xxxiii

Last reported at 2017-Sep-21 13:55 UTC. Time now 2017-Sep-23 02:27 UTC.
Position N 37°58' E 023°34'.

Length 33 m; draft 5 m.

Type: Tug. MMSI: 241395000.

Date/timePositionNaut miles runAvg speedWind from/ knotsBaromVisibWave heightAir tempDewpointWater temp
2017-Sep-21 13:55N 37°58' E 023°34'1 1.3
2017-Sep-21 13:31N 37°57' E 023°33'0 0.1
2017-Sep-21 13:00N 37°57' E 023°33'0 0.0
2017-Sep-21 12:30N 37°57' E 023°33'0 0.0
2017-Sep-21 12:00N 37°57' E 023°33'0 0.3
2017-Sep-21 11:31N 37°57' E 023°33'4 8.3
2017-Sep-21 11:00N 38°01' E 023°35'0 0.6
2017-Sep-21 10:30N 38°01' E 023°35'4 7.5
2017-Sep-21 10:00N 37°58' E 023°33'1 2.1
2017-Sep-21 09:30N 37°58' E 023°34'0 0.0
2017-Sep-21 09:00N 37°58' E 023°34'0 0.0
2017-Sep-21 08:30N 37°58' E 023°34'0 0.0
2017-Sep-21 08:00N 37°58' E 023°34'0 0.0
2017-Sep-21 07:30N 37°58' E 023°34'0 0.0
2017-Sep-21 07:01N 37°58' E 023°34'2 3.5
2017-Sep-21 06:31N 37°56' E 023°34'1 0.2
2017-Sep-21 00:37N 37°57' E 023°35'0 3.7
2017-Sep-21 00:30N 37°56' E 023°35'1 1.6
2017-Sep-21 00:01N 37°56' E 023°34'0 0.1
2017-Sep-20 23:31N 37°56' E 023°34'0 0.0
2017-Sep-20 23:01N 37°56' E 023°34'0 0.0
2017-Sep-20 22:30N 37°56' E 023°34'0 0.0
2017-Sep-20 22:00N 37°56' E 023°34'0 0.0
2017-Sep-20 21:30N 37°56' E 023°34'0 0.0
2017-Sep-20 21:00N 37°56' E 023°34'0 0.0
2017-Sep-20 20:31N 37°56' E 023°34'0 0.0
2017-Sep-20 20:00N 37°56' E 023°34'0 0.0
2017-Sep-20 19:31N 37°56' E 023°34'0 0.0
2017-Sep-20 19:00N 37°56' E 023°34'0 0.0
2017-Sep-20 18:30N 37°56' E 023°34'0 0.0
2017-Sep-20 18:00N 37°56' E 023°34'0 0.1
2017-Sep-20 17:31N 37°56' E 023°34'4 8.9
2017-Sep-20 17:00N 37°55' E 023°39'3 5.8
2017-Sep-20 16:30N 37°54' E 023°43'0 0.0
2017-Sep-20 16:00N 37°54' E 023°43'0 0.0
2017-Sep-20 15:30N 37°54' E 023°43'0 0.0
2017-Sep-20 15:00N 37°54' E 023°43'1 1.3
2017-Sep-20 14:00N 37°53' E 023°42'5 9.3
2017-Sep-20 13:30N 37°56' E 023°37'4 7.3
2017-Sep-20 13:00N 37°57' E 023°33'0 0.2
2017-Sep-20 12:30N 37°57' E 023°33'1 1.3
2017-Sep-20 12:00N 37°57' E 023°34'2 3.2
2017-Sep-20 11:30N 37°56' E 023°34'0 0.0
2017-Sep-20 11:00N 37°56' E 023°34'0 0.0
2017-Sep-20 10:30N 37°56' E 023°34'0 0.0
2017-Sep-20 10:01N 37°56' E 023°34'0 0.0
2017-Sep-20 09:30N 37°56' E 023°34'0 0.0
2017-Sep-20 09:00N 37°56' E 023°34'0 0.0
2017-Sep-20 08:31N 37°56' E 023°34'0 0.0
2017-Sep-20 08:01N 37°56' E 023°34'0 0.0
2017-Sep-20 07:30N 37°56' E 023°34'0 0.0
2017-Sep-20 07:00N 37°56' E 023°34'0 0.0
2017-Sep-20 06:30N 37°56' E 023°34'0 0.0
2017-Sep-20 06:00N 37°56' E 023°34'0 0.0
2017-Sep-20 05:30N 37°56' E 023°34'0 0.0
2017-Sep-20 05:00N 37°56' E 023°34'0 0.0
2017-Sep-20 04:30N 37°56' E 023°34'0 0.0
2017-Sep-20 04:00N 37°56' E 023°34'0 0.0
2017-Sep-20 03:30N 37°56' E 023°34'0 0.0
2017-Sep-20 03:01N 37°56' E 023°34'0 0.0
2017-Sep-20 02:30N 37°56' E 023°34'0 0.0
2017-Sep-20 02:01N 37°56' E 023°34'0 0.0
2017-Sep-20 01:30N 37°56' E 023°34'0 0.0
2017-Sep-20 01:00N 37°56' E 023°34'0 0.0
2017-Sep-20 00:30N 37°56' E 023°34'0 0.0
2017-Sep-20 00:00N 37°56' E 023°34'0 0.0
2017-Sep-19 23:30N 37°56' E 023°34'0 0.0
2017-Sep-19 23:00N 37°56' E 023°34'0 0.0
2017-Sep-19 22:30N 37°56' E 023°34'0 0.0
2017-Sep-19 22:00N 37°56' E 023°34'0 0.0
2017-Sep-19 21:30N 37°56' E 023°34'0 0.0
2017-Sep-19 21:00N 37°56' E 023°34'0 0.0
2017-Sep-19 20:30N 37°56' E 023°34'0 0.0
2017-Sep-19 18:42N 37°56' E 023°34'0 0.0
2017-Sep-19 18:31N 37°56' E 023°34'0 0.0
2017-Sep-19 18:00N 37°56' E 023°34'0 0.0
2017-Sep-19 17:31N 37°56' E 023°34'0 0.0
2017-Sep-19 17:00N 37°56' E 023°34'0 0.0
2017-Sep-19 16:30N 37°56' E 023°34'0 0.0
2017-Sep-19 16:01N 37°56' E 023°34'0 0.0
2017-Sep-19 15:31N 37°56' E 023°34'0 0.0
2017-Sep-19 15:01N 37°56' E 023°34'0 0.0
2017-Sep-19 14:30N 37°56' E 023°34'0 0.0
2017-Sep-19 14:00N 37°56' E 023°34'0 0.8
2017-Sep-19 13:31N 37°56' E 023°34'0 0.6
2017-Sep-19 13:00N 37°56' E 023°34'0 0.0
2017-Sep-19 12:31N 37°56' E 023°34'0 0.0
2017-Sep-19 12:01N 37°56' E 023°34'0 0.0
2017-Sep-19 11:30N 37°56' E 023°34'0 0.0
2017-Sep-19 11:00N 37°56' E 023°34'0 0.0
2017-Sep-19 10:31N 37°56' E 023°34'0 0.1
2017-Sep-19 10:00N 37°56' E 023°34'0 0.5
2017-Sep-19 09:30N 37°56' E 023°34'0 0.1
2017-Sep-19 09:01N 37°56' E 023°34'0 0.2
2017-Sep-19 08:30N 37°56' E 023°34'0 0.1
2017-Sep-19 08:01N 37°56' E 023°34'0 0.4
2017-Sep-19 07:31N 37°56' E 023°34'0 0.4
2017-Sep-19 07:00N 37°56' E 023°34'0 0.0
2017-Sep-19 06:30N 37°56' E 023°34'0 0.0
2017-Sep-19 06:00N 37°56' E 023°34'0 0.0
2017-Sep-19 05:30N 37°56' E 023°34'0 0.0
2017-Sep-19 05:00N 37°56' E 023°34'0 0.0
2017-Sep-19 04:31N 37°56' E 023°34'0 0.0
2017-Sep-19 04:01N 37°56' E 023°34'0 0.0
2017-Sep-19 03:31N 37°56' E 023°34'0 0.0
2017-Sep-19 03:00N 37°56' E 023°34'0 0.0
2017-Sep-19 02:30N 37°56' E 023°34'0 0.0
2017-Sep-19 02:00N 37°56' E 023°34'0 0.0
2017-Sep-19 01:30N 37°56' E 023°34'0 0.0
2017-Sep-19 01:01N 37°56' E 023°34'0 0.0
2017-Sep-19 00:31N 37°56' E 023°34'0 0.0
2017-Sep-19 00:00N 37°56' E 023°34'0 0.0
2017-Sep-18 23:30N 37°56' E 023°34'0 0.0
2017-Sep-18 23:00N 37°56' E 023°34'0 0.0
2017-Sep-18 22:30N 37°56' E 023°34'0 0.0
2017-Sep-18 22:01N 37°56' E 023°34'0 0.0
2017-Sep-18 21:31N 37°56' E 023°34'0 0.0
2017-Sep-18 21:00N 37°56' E 023°34'0 0.0
2017-Sep-18 20:31N 37°56' E 023°34'1 0.7
2017-Sep-18 18:21N 37°56' E 023°36'2 4.4
2017-Sep-18 18:01N 37°56' E 023°34'0 0.0
2017-Sep-18 17:30N 37°56' E 023°34'0 0.0
2017-Sep-18 17:01N 37°56' E 023°34'0 0.0
2017-Sep-18 16:31N 37°56' E 023°34'0 0.0
2017-Sep-18 16:01N 37°56' E 023°34'0 0.0
2017-Sep-18 15:31N 37°56' E 023°34'0 0.0
2017-Sep-18 15:01N 37°56' E 023°34'0 0.0
2017-Sep-18 14:31N 37°56' E 023°34'0 0.0
2017-Sep-18 14:01N 37°56' E 023°34'0 0.0
2017-Sep-18 13:30N 37°56' E 023°34'0 0.0
2017-Sep-18 13:00N 37°56' E 023°34'0 0.0
2017-Sep-18 12:31N 37°56' E 023°34'0 0.0
2017-Sep-18 12:01N 37°56' E 023°34'0 0.0
2017-Sep-18 11:30N 37°56' E 023°34'0 0.0
2017-Sep-18 11:00N 37°56' E 023°34'0 0.0
2017-Sep-18 10:30N 37°56' E 023°34'0 0.0
2017-Sep-18 10:01N 37°56' E 023°34'0 0.0
2017-Sep-18 09:31N 37°56' E 023°34'0 0.0
2017-Sep-18 09:01N 37°56' E 023°34'0 0.0
2017-Sep-18 08:30N 37°56' E 023°34'0 0.0
2017-Sep-18 08:01N 37°56' E 023°34'0 0.0
2017-Sep-18 07:30N 37°56' E 023°34'0 0.0
2017-Sep-18 07:00N 37°56' E 023°34'0 0.0
2017-Sep-18 06:30N 37°56' E 023°34'0 0.0
2017-Sep-18 06:00N 37°56' E 023°34'0 0.0
2017-Sep-18 05:31N 37°56' E 023°34'0 0.0
2017-Sep-18 05:01N 37°56' E 023°34'0 0.0
2017-Sep-18 04:30N 37°56' E 023°34'0 0.0
2017-Sep-18 02:34N 37°56' E 023°34'0 0.2
2017-Sep-18 02:30N 37°56' E 023°34'0 0.0
2017-Sep-18 02:00N 37°56' E 023°34'0 0.0
2017-Sep-18 01:31N 37°56' E 023°34'0 0.0
2017-Sep-18 01:00N 37°56' E 023°34'0 0.0
2017-Sep-18 00:30N 37°56' E 023°34'0 0.0
2017-Sep-18 00:00N 37°56' E 023°34'0 0.0
2017-Sep-17 23:31N 37°56' E 023°34'0 0.0
2017-Sep-17 23:00N 37°56' E 023°34'0 0.0
2017-Sep-17 22:30N 37°56' E 023°34'0 0.0
2017-Sep-17 22:00N 37°56' E 023°34'0 0.0
2017-Sep-17 21:30N 37°56' E 023°34'0 0.0
2017-Sep-17 21:00N 37°56' E 023°34'0 0.0
2017-Sep-17 20:30N 37°56' E 023°34'0 0.0
2017-Sep-17 20:01N 37°56' E 023°34'0 0.0
2017-Sep-17 18:13N 37°56' E 023°34'0 0.4
2017-Sep-17 18:01N 37°56' E 023°34'0 0.0
2017-Sep-17 17:31N 37°56' E 023°34'0 0.0
2017-Sep-17 17:00N 37°56' E 023°34'0 0.0
2017-Sep-17 16:30N 37°56' E 023°34'0 0.0
2017-Sep-17 16:01N 37°56' E 023°34'0 0.0
2017-Sep-17 15:31N 37°56' E 023°34'0 0.0
2017-Sep-17 15:00N 37°56' E 023°34'0 0.0
2017-Sep-17 14:30N 37°56' E 023°34'0 0.2
2017-Sep-17 14:01N 37°56' E 023°34'0 0.0
2017-Sep-17 12:14N 37°56' E 023°34'0 0.4
2017-Sep-17 12:01N 37°56' E 023°34'0 0.0
2017-Sep-17 11:30N 37°56' E 023°34'0 0.0
2017-Sep-17 11:00N 37°56' E 023°34'0 0.0
2017-Sep-17 10:30N 37°56' E 023°34'0 0.0
2017-Sep-17 10:00N 37°56' E 023°34'0 0.0
2017-Sep-17 09:30N 37°56' E 023°34'0 0.0
2017-Sep-17 09:01N 37°56' E 023°34'0 0.1
2017-Sep-17 08:31N 37°56' E 023°34'2 3.5
2017-Sep-17 08:00N 37°58' E 023°34'0 0.0
2017-Sep-17 07:30N 37°58' E 023°34'0 0.0
2017-Sep-17 07:01N 37°58' E 023°34'0 0.0
2017-Sep-17 06:30N 37°58' E 023°34'0 0.0
2017-Sep-17 06:00N 37°58' E 023°34'0 0.0
2017-Sep-17 05:30N 37°58' E 023°34'0 0.0
2017-Sep-17 05:00N 37°58' E 023°34'0 0.0
2017-Sep-17 04:31N 37°58' E 023°34'0 0.0
2017-Sep-17 04:00N 37°58' E 023°34'0 0.0
2017-Sep-16 12:23N 37°58' E 023°34'1 2.4
2017-Sep-16 12:01N 37°57' E 023°35'1 1.8
2017-Sep-16 11:31N 37°58' E 023°34'0 0.1
2017-Sep-16 11:00N 37°58' E 023°34'0 0.0
2017-Sep-16 10:30N 37°58' E 023°34'0 0.0
2017-Sep-16 10:00N 37°58' E 023°34'0 0.8
2017-Sep-16 09:30N 37°57' E 023°33'0 0.8
2017-Sep-16 09:00N 37°58' E 023°34'0 0.0
2017-Sep-16 08:31N 37°58' E 023°34'0 0.0
2017-Sep-16 08:00N 37°58' E 023°34'0 0.0
2017-Sep-16 07:30N 37°58' E 023°34'0 0.0
2017-Sep-16 07:00N 37°58' E 023°34'0 0.0
2017-Sep-16 06:30N 37°58' E 023°34'0 0.0
2017-Sep-16 06:00N 37°58' E 023°34'1 1.9
2017-Sep-16 05:30N 37°57' E 023°35'1 2.7
2017-Sep-16 05:00N 37°56' E 023°34'0 0.0
2017-Sep-16 04:30N 37°56' E 023°34'0 0.0
2017-Sep-16 04:00N 37°56' E 023°34'0 0.0
2017-Sep-16 03:30N 37°56' E 023°34'0 0.0
2017-Sep-16 03:00N 37°56' E 023°34'0 0.0
2017-Sep-16 02:30N 37°56' E 023°34'0 0.0
2017-Sep-16 02:00N 37°56' E 023°34'0 0.0
2017-Sep-16 01:30N 37°56' E 023°34'0 0.0
2017-Sep-16 01:00N 37°56' E 023°34'0 0.0
2017-Sep-16 00:30N 37°56' E 023°34'0 0.0
2017-Sep-16 00:01N 37°56' E 023°34'0 0.0
2017-Sep-15 23:31N 37°56' E 023°34'0 0.0
2017-Sep-15 23:00N 37°56' E 023°34'0 0.0
2017-Sep-15 22:30N 37°56' E 023°34'0 0.0
2017-Sep-15 22:00N 37°56' E 023°34'0 0.0
2017-Sep-15 21:30N 37°56' E 023°34'0 0.0
2017-Sep-15 21:00N 37°56' E 023°34'0 0.0
2017-Sep-15 20:30N 37°56' E 023°34'0 0.0
2017-Sep-15 20:00N 37°56' E 023°34'0 0.0
2017-Sep-15 19:30N 37°56' E 023°34'0 0.0
2017-Sep-15 19:00N 37°56' E 023°34'0 0.0
2017-Sep-15 18:30N 37°56' E 023°34'0 0.0
2017-Sep-15 18:00N 37°56' E 023°34'0 0.0
2017-Sep-15 17:30N 37°56' E 023°34'0 0.0
2017-Sep-15 17:01N 37°56' E 023°34'0 0.0
2017-Sep-15 16:30N 37°56' E 023°34'0 0.0
2017-Sep-15 16:00N 37°56' E 023°34'0 0.0
2017-Sep-15 15:31N 37°56' E 023°34'0 0.0
2017-Sep-15 15:00N 37°56' E 023°34'0 0.0
2017-Sep-15 14:30N 37°56' E 023°34'0 0.0
2017-Sep-15 14:00N 37°56' E 023°34'0 0.0
2017-Sep-15 13:31N 37°56' E 023°34'0 0.0
2017-Sep-15 13:00N 37°56' E 023°34'0 0.0
2017-Sep-15 12:30N 37°56' E 023°34'0 0.0
2017-Sep-15 12:00N 37°56' E 023°34'0 0.0
2017-Sep-15 11:30N 37°56' E 023°34'0 0.0
2017-Sep-15 11:01N 37°56' E 023°34'0 0.0
2017-Sep-15 10:30N 37°56' E 023°34'0 0.0
2017-Sep-15 10:00N 37°56' E 023°34'0 0.0
2017-Sep-15 09:30N 37°56' E 023°34'0 0.0
2017-Sep-15 09:00N 37°56' E 023°34'0 0.0
2017-Sep-15 08:30N 37°56' E 023°34'0 0.0
2017-Sep-15 08:00N 37°56' E 023°34'0 0.0
2017-Sep-15 07:31N 37°56' E 023°34'0 0.0
2017-Sep-15 07:00N 37°56' E 023°34'0 0.0
2017-Sep-15 06:31N 37°56' E 023°34'0 0.0
2017-Sep-15 06:01N 37°56' E 023°34'0 0.0
2017-Sep-15 05:30N 37°56' E 023°34'0 0.0
2017-Sep-15 05:00N 37°56' E 023°34'0 0.0
2017-Sep-15 04:30N 37°56' E 023°34'0 0.0
2017-Sep-15 04:00N 37°56' E 023°34'0 0.0
2017-Sep-15 03:30N 37°56' E 023°34'0 0.0
2017-Sep-15 03:00N 37°56' E 023°34'0 0.0
2017-Sep-15 02:31N 37°56' E 023°34'0 0.0
2017-Sep-15 02:00N 37°56' E 023°34'0 0.0
2017-Sep-15 01:30N 37°56' E 023°34'0 0.0
2017-Sep-15 01:01N 37°56' E 023°34'0 0.0
2017-Sep-15 00:30N 37°56' E 023°34'0 0.0
2017-Sep-15 00:00N 37°56' E 023°34'0 0.0
2017-Sep-14 23:30N 37°56' E 023°34'0 0.0
2017-Sep-14 23:01N 37°56' E 023°34'0 0.0
2017-Sep-14 22:30N 37°56' E 023°34'0 0.0
2017-Sep-14 22:01N 37°56' E 023°34'0 0.0
2017-Sep-14 21:31N 37°56' E 023°34'0 0.0
2017-Sep-14 21:00N 37°56' E 023°34'0 0.0
2017-Sep-14 20:30N 37°56' E 023°34'0 0.0
2017-Sep-14 20:00N 37°56' E 023°34'0 0.0
2017-Sep-14 19:31N 37°56' E 023°34'0 0.0
2017-Sep-14 19:01N 37°56' E 023°34'0 0.4
2017-Sep-14 18:30N 37°56' E 023°34'0 0.0
2017-Sep-14 18:01N 37°56' E 023°34'1 2.9
2017-Sep-14 17:31N 37°57' E 023°33'0 0.1
2017-Sep-14 17:00N 37°57' E 023°33'1 1.3
2017-Sep-14 16:30N 37°58' E 023°34'2 3.7
2017-Sep-14 16:01N 37°56' E 023°34'0 0.1
2017-Sep-14 15:31N 37°56' E 023°34'0 0.0
2017-Sep-14 15:01N 37°56' E 023°34'0 0.0
2017-Sep-14 14:30N 37°56' E 023°34'0 0.0
2017-Sep-14 14:01N 37°56' E 023°34'0 0.0
2017-Sep-14 13:30N 37°56' E 023°34'0 0.0
2017-Sep-14 13:00N 37°56' E 023°34'0 0.0
2017-Sep-14 12:31N 37°56' E 023°34'0 0.1
2017-Sep-14 12:00N 37°56' E 023°34'0 0.0
2017-Sep-14 11:30N 37°56' E 023°34'0 0.0
2017-Sep-14 11:01N 37°56' E 023°34'0 0.0
2017-Sep-14 10:30N 37°56' E 023°34'0 0.0
2017-Sep-14 10:00N 37°56' E 023°34'0 0.0
2017-Sep-14 09:30N 37°56' E 023°34'0 0.0
2017-Sep-14 09:01N 37°56' E 023°34'0 0.0
2017-Sep-14 08:30N 37°56' E 023°34'1 2.6
2017-Sep-14 08:01N 37°57' E 023°35'1 2.1
2017-Sep-14 07:30N 37°57' E 023°34'0 0.0
2017-Sep-14 07:00N 37°57' E 023°34'0 0.0
2017-Sep-14 06:30N 37°57' E 023°34'0 0.0
2017-Sep-14 06:00N 37°57' E 023°34'0 0.0
2017-Sep-14 05:30N 37°57' E 023°34'0 0.0
2017-Sep-14 05:00N 37°57' E 023°34'0 0.0
2017-Sep-13 19:18N 37°57' E 023°34'1 1.9
2017-Sep-13 19:00N 37°57' E 023°34'1 2.6
2017-Sep-13 18:30N 37°56' E 023°34'0 0.1
2017-Sep-13 18:00N 37°56' E 023°34'0 0.0
2017-Sep-13 17:31N 37°56' E 023°34'0 0.0
2017-Sep-13 17:01N 37°56' E 023°34'0 0.0
2017-Sep-13 16:30N 37°56' E 023°34'0 0.0
2017-Sep-13 16:00N 37°56' E 023°34'0 0.0
2017-Sep-13 15:30N 37°56' E 023°34'0 0.0
2017-Sep-13 15:00N 37°56' E 023°34'0 0.0
2017-Sep-13 14:30N 37°56' E 023°34'0 0.0
2017-Sep-13 14:01N 37°56' E 023°34'0 0.0
2017-Sep-13 13:31N 37°56' E 023°34'0 0.0
2017-Sep-13 13:00N 37°56' E 023°34'0 0.0
2017-Sep-13 12:30N 37°56' E 023°34'0 0.0
2017-Sep-13 12:00N 37°56' E 023°34'0 0.0
2017-Sep-13 11:31N 37°56' E 023°34'0 0.1
2017-Sep-13 11:00N 37°56' E 023°34'0 0.0
2017-Sep-13 10:31N 37°56' E 023°34'0 0.0
2017-Sep-13 10:00N 37°56' E 023°34'0 0.0
2017-Sep-13 09:30N 37°56' E 023°34'0 0.0
2017-Sep-13 09:00N 37°56' E 023°34'0 0.0
2017-Sep-13 08:30N 37°56' E 023°34'0 0.1
2017-Sep-13 08:01N 37°56' E 023°34'0 0.7
2017-Sep-13 07:30N 37°56' E 023°34'0 0.6
2017-Sep-13 07:00N 37°56' E 023°34'0 0.1
2017-Sep-13 06:30N 37°56' E 023°34'0 0.0
2017-Sep-13 06:01N 37°56' E 023°34'0 0.0
2017-Sep-13 05:31N 37°56' E 023°34'0 0.0
2017-Sep-13 05:00N 37°56' E 023°34'0 0.0
2017-Sep-13 04:31N 37°56' E 023°34'0 0.0
2017-Sep-13 04:01N 37°56' E 023°34'0 0.0
2017-Sep-13 03:30N 37°56' E 023°34'0 0.0
2017-Sep-13 03:00N 37°56' E 023°34'0 0.0
2017-Sep-13 02:30N 37°56' E 023°34'0 0.1
2017-Sep-13 02:00N 37°56' E 023°34'0 0.0
2017-Sep-13 01:30N 37°56' E 023°34'0 0.0
2017-Sep-13 01:01N 37°56' E 023°34'0 0.0
2017-Sep-13 00:30N 37°56' E 023°34'0 0.0
2017-Sep-13 00:00N 37°56' E 023°34'0 0.0
2017-Sep-12 23:30N 37°56' E 023°34'0 0.0
2017-Sep-12 23:00N 37°56' E 023°34'0 0.0
2017-Sep-12 22:30N 37°56' E 023°34'0 0.0
2017-Sep-12 22:01N 37°56' E 023°34'0 0.0
2017-Sep-12 21:31N 37°56' E 023°34'0 0.0
2017-Sep-12 21:00N 37°56' E 023°34'0 0.0
2017-Sep-12 20:30N 37°56' E 023°34'0 0.0
2017-Sep-12 20:00N 37°56' E 023°34'0 0.7
2017-Sep-12 19:30N 37°56' E 023°34'0 0.2
2017-Sep-12 19:00N 37°56' E 023°34'0 0.8
2017-Sep-12 18:31N 37°56' E 023°35'0 1.0
2017-Sep-12 18:00N 37°56' E 023°34'2 4.0
2017-Sep-12 17:30N 37°55' E 023°37'1 3.0
2017-Sep-12 17:00N 37°55' E 023°39'0 0.2
2017-Sep-12 16:31N 37°55' E 023°39'0 0.6
2017-Sep-12 16:01N 37°55' E 023°39'0 0.6
2017-Sep-12 15:31N 37°55' E 023°39'1 1.4
2017-Sep-12 15:01N 37°55' E 023°38'1 1.0
2017-Sep-12 14:31N 37°55' E 023°38'2 3.2
2017-Sep-12 14:00N 37°56' E 023°36'2 3.4
2017-Sep-12 13:30N 37°57' E 023°34'4 7.5
2017-Sep-12 13:01N 37°55' E 023°38'0 0.1
2017-Sep-12 12:31N 37°55' E 023°38'0 0.4
2017-Sep-12 12:01N 37°55' E 023°38'2 3.1
2017-Sep-12 11:30N 37°55' E 023°36'2 4.1
2017-Sep-12 11:00N 37°56' E 023°34'0 0.0
2017-Sep-12 10:31N 37°56' E 023°34'0 0.0
2017-Sep-12 10:00N 37°56' E 023°34'0 0.0
2017-Sep-12 09:30N 37°56' E 023°34'0 0.0
2017-Sep-12 09:01N 37°56' E 023°34'0 0.0
2017-Sep-12 08:30N 37°56' E 023°34'0 0.0
2017-Sep-12 08:00N 37°56' E 023°34'0 0.0
2017-Sep-12 07:30N 37°56' E 023°34'0 0.0
2017-Sep-12 07:00N 37°56' E 023°34'0 0.1
2017-Sep-12 06:30N 37°56' E 023°34'0 0.0
2017-Sep-12 06:00N 37°56' E 023°34'0 0.0
2017-Sep-12 05:30N 37°56' E 023°34'0 0.0
2017-Sep-12 05:01N 37°56' E 023°34'0 0.0
2017-Sep-12 04:31N 37°56' E 023°34'0 0.0
2017-Sep-12 04:01N 37°56' E 023°34'0 0.0
2017-Sep-12 03:30N 37°56' E 023°34'0 0.0
2017-Sep-12 03:01N 37°56' E 023°34'0 0.0
2017-Sep-12 02:30N 37°56' E 023°34'0 0.0
2017-Sep-12 02:00N 37°56' E 023°34'0 0.0
2017-Sep-12 01:30N 37°56' E 023°34'0 0.0
2017-Sep-12 01:01N 37°56' E 023°34'0 0.0
2017-Sep-12 00:30N 37°56' E 023°34'0 0.0
2017-Sep-12 00:00N 37°56' E 023°34'0 0.0
2017-Sep-11 23:30N 37°56' E 023°34'0 0.1
2017-Sep-11 23:00N 37°56' E 023°34'0 0.0
2017-Sep-11 22:31N 37°56' E 023°34'0 0.1
2017-Sep-11 22:00N 37°56' E 023°34'0 0.0
2017-Sep-11 21:30N 37°56' E 023°34'0 0.0
2017-Sep-11 21:00N 37°56' E 023°34'0 0.0
2017-Sep-11 20:30N 37°56' E 023°34'0 0.0
2017-Sep-11 20:01N 37°56' E 023°34'0 0.7
2017-Sep-11 19:31N 37°56' E 023°34'3 6.4
2017-Sep-11 19:00N 37°56' E 023°38'2 5.0
2017-Sep-11 18:30N 37°57' E 023°35'0 0.7
2017-Sep-11 18:00N 37°57' E 023°35'1 2.2
2017-Sep-11 17:30N 37°56' E 023°34'0 0.0
2017-Sep-11 17:01N 37°56' E 023°34'0 0.0
2017-Sep-11 16:30N 37°56' E 023°34'0 0.0
2017-Sep-11 16:01N 37°56' E 023°34'0 0.0
2017-Sep-11 15:30N 37°56' E 023°34'0 0.0
2017-Sep-11 15:00N 37°56' E 023°34'0 0.0
2017-Sep-11 14:30N 37°56' E 023°34'0 0.0
2017-Sep-11 14:01N 37°56' E 023°34'  

Dump ship's entire track history